Terminal Aerodrome Forecast
Issued by NWS Corpus Christi, TX

Home | Current Version | Previous Version | Text Only | Print | Product List | Glossary On
Versions: 1 2 3 4 5 6 7 8 9 10 11 12 13 14 15 16 17 18 19 20
000
FTUS44 KCRP 230500
TAFVCT
TAF
KVCT 230532Z 2306/2406 16005KT 5SM BR SCT010
      TEMPO 2306/2308 P6SM NSW SKC
     FM230900 VRB03KT 1SM BR BKN004
      TEMPO 2310/2313 1/2SM FG OVC001
     FM231430 16010KT P6SM BKN020
     FM231900 15016G22KT P6SM SCT035 BKN250
     FM240200 15011KT P6SM SCT015 BKN250=

USA.gov is the U.S. government's official web portal to all federal, state and local government web resources and services.